sensor_id;sensor_type;location;lat;lon;timestamp;P1;durP1;ratioP1;P2;durP2;ratioP2
11046;SDS011;5576;50.008;10.596;2023-04-24T00:02:05;1.33;;;0.90;;
11046;SDS011;5576;50.008;10.596;2023-04-24T00:04:31;1.00;;;0.80;;
11046;SDS011;5576;50.008;10.596;2023-04-24T00:06:58;1.15;;;0.90;;
11046;SDS011;5576;50.008;10.596;2023-04-24T00:09:25;1.83;;;0.90;;
11046;SDS011;5576;50.008;10.596;2023-04-24T00:11:51;1.50;;;0.90;;
11046;SDS011;5576;50.008;10.596;2023-04-24T00:14:17;1.10;;;0.88;;
11046;SDS011;5576;50.008;10.596;2023-04-24T00:16:43;1.63;;;0.88;;
11046;SDS011;5576;50.008;10.596;2023-04-24T00:19:09;1.87;;;0.90;;
11046;SDS011;5576;50.008;10.596;2023-04-24T00:21:36;1.20;;;0.77;;
11046;SDS011;5576;50.008;10.596;2023-04-24T00:24:02;1.40;;;0.93;;
11046;SDS011;5576;50.008;10.596;2023-04-24T00:26:28;1.08;;;0.88;;
11046;SDS011;5576;50.008;10.596;2023-04-24T00:28:54;1.48;;;0.82;;
11046;SDS011;5576;50.008;10.596;2023-04-24T00:31:20;1.02;;;0.80;;
11046;SDS011;5576;50.008;10.596;2023-04-24T00:33:46;1.70;;;0.80;;
11046;SDS011;5576;50.008;10.596;2023-04-24T00:36:12;1.77;;;0.70;;
11046;SDS011;5576;50.008;10.596;2023-04-24T00:38:37;1.37;;;0.90;;
11046;SDS011;5576;50.008;10.596;2023-04-24T00:41:03;0.77;;;0.77;;
11046;SDS011;5576;50.008;10.596;2023-04-24T00:43:29;1.93;;;0.73;;
11046;SDS011;5576;50.008;10.596;2023-04-24T00:45:55;1.38;;;0.80;;
11046;SDS011;5576;50.008;10.596;2023-04-24T00:48:21;1.73;;;0.80;;
11046;SDS011;5576;50.008;10.596;2023-04-24T00:50:48;1.58;;;0.70;;
11046;SDS011;5576;50.008;10.596;2023-04-24T00:53:13;1.25;;;0.80;;
11046;SDS011;5576;50.008;10.596;2023-04-24T00:55:39;1.53;;;0.80;;
11046;SDS011;5576;50.008;10.596;2023-04-24T00:58:05;1.27;;;0.80;;
11046;SDS011;5576;50.008;10.596;2023-04-24T01:00:31;1.10;;;0.90;;
11046;SDS011;5576;50.008;10.596;2023-04-24T01:02:57;0.80;;;0.80;;
11046;SDS011;5576;50.008;10.596;2023-04-24T01:05:26;1.27;;;0.80;;
11046;SDS011;5576;50.008;10.596;2023-04-24T01:07:51;1.37;;;0.80;;
11046;SDS011;5576;50.008;10.596;2023-04-24T01:10:17;1.90;;;0.90;;
11046;SDS011;5576;50.008;10.596;2023-04-24T01:12:45;1.60;;;0.80;;
11046;SDS011;5576;50.008;10.596;2023-04-24T01:15:11;2.00;;;1.00;;
11046;SDS011;5576;50.008;10.596;2023-04-24T01:17:37;1.60;;;0.80;;
11046;SDS011;5576;50.008;10.596;2023-04-24T01:20:04;1.93;;;0.90;;
11046;SDS011;5576;50.008;10.596;2023-04-24T01:22:32;1.48;;;0.80;;
11046;SDS011;5576;50.008;10.596;2023-04-24T01:24:59;1.75;;;1.00;;
11046;SDS011;5576;50.008;10.596;2023-04-24T01:27:25;1.30;;;0.70;;
11046;SDS011;5576;50.008;10.596;2023-04-24T01:29:51;2.87;;;0.87;;
11046;SDS011;5576;50.008;10.596;2023-04-24T01:32:17;1.33;;;0.80;;
11046;SDS011;5576;50.008;10.596;2023-04-24T01:34:43;0.93;;;0.70;;
11046;SDS011;5576;50.008;10.596;2023-04-24T01:37:10;1.50;;;0.70;;
11046;SDS011;5576;50.008;10.596;2023-04-24T01:39:36;1.80;;;0.80;;
11046;SDS011;5576;50.008;10.596;2023-04-24T01:42:01;0.63;;;0.63;;
11046;SDS011;5576;50.008;10.596;2023-04-24T01:44:27;1.43;;;0.80;;
11046;SDS011;5576;50.008;10.596;2023-04-24T01:46:54;1.55;;;0.73;;
11046;SDS011;5576;50.008;10.596;2023-04-24T01:49:20;0.80;;;0.70;;
11046;SDS011;5576;50.008;10.596;2023-04-24T01:51:46;0.90;;;0.80;;
11046;SDS011;5576;50.008;10.596;2023-04-24T01:54:12;1.20;;;0.70;;
11046;SDS011;5576;50.008;10.596;2023-04-24T01:56:40;1.02;;;0.60;;
11046;SDS011;5576;50.008;10.596;2023-04-24T01:59:08;1.13;;;0.75;;
11046;SDS011;5576;50.008;10.596;2023-04-24T02:01:36;2.10;;;0.90;;
11046;SDS011;5576;50.008;10.596;2023-04-24T02:04:02;1.73;;;0.80;;
11046;SDS011;5576;50.008;10.596;2023-04-24T02:06:29;1.33;;;1.00;;
11046;SDS011;5576;50.008;10.596;2023-04-24T02:08:56;1.27;;;0.80;;
11046;SDS011;5576;50.008;10.596;2023-04-24T02:11:23;3.05;;;0.82;;
11046;SDS011;5576;50.008;10.596;2023-04-24T02:13:50;1.77;;;0.73;;
11046;SDS011;5576;50.008;10.596;2023-04-24T02:16:16;1.48;;;0.88;;
11046;SDS011;5576;50.008;10.596;2023-04-24T02:18:42;1.42;;;0.80;;
11046;SDS011;5576;50.008;10.596;2023-04-24T02:21:08;1.30;;;1.00;;
11046;SDS011;5576;50.008;10.596;2023-04-24T02:23:34;1.00;;;0.70;;
11046;SDS011;5576;50.008;10.596;2023-04-24T02:26:00;1.00;;;0.90;;
11046;SDS011;5576;50.008;10.596;2023-04-24T02:28:25;1.77;;;1.03;;
11046;SDS011;5576;50.008;10.596;2023-04-24T02:30:51;1.73;;;0.82;;
11046;SDS011;5576;50.008;10.596;2023-04-24T02:33:23;1.08;;;0.88;;
11046;SDS011;5576;50.008;10.596;2023-04-24T02:35:48;5.17;;;1.07;;
11046;SDS011;5576;50.008;10.596;2023-04-24T02:38:14;0.73;;;0.60;;
11046;SDS011;5576;50.008;10.596;2023-04-24T02:40:41;1.60;;;0.85;;
11046;SDS011;5576;50.008;10.596;2023-04-24T02:43:09;1.42;;;0.70;;
11046;SDS011;5576;50.008;10.596;2023-04-24T02:45:34;1.35;;;0.80;;
11046;SDS011;5576;50.008;10.596;2023-04-24T02:48:00;1.13;;;0.68;;
11046;SDS011;5576;50.008;10.596;2023-04-24T02:50:26;0.80;;;0.77;;
11046;SDS011;5576;50.008;10.596;2023-04-24T02:52:52;0.88;;;0.70;;
11046;SDS011;5576;50.008;10.596;2023-04-24T02:55:18;1.23;;;0.70;;
11046;SDS011;5576;50.008;10.596;2023-04-24T02:57:44;1.67;;;0.70;;
11046;SDS011;5576;50.008;10.596;2023-04-24T03:00:10;0.70;;;0.70;;
11046;SDS011;5576;50.008;10.596;2023-04-24T03:02:36;0.70;;;0.60;;
11046;SDS011;5576;50.008;10.596;2023-04-24T03:05:02;1.10;;;0.60;;
11046;SDS011;5576;50.008;10.596;2023-04-24T03:07:29;0.85;;;0.60;;
11046;SDS011;5576;50.008;10.596;2023-04-24T03:09:58;0.90;;;0.60;;
11046;SDS011;5576;50.008;10.596;2023-04-24T03:12:25;2.10;;;0.85;;
11046;SDS011;5576;50.008;10.596;2023-04-24T03:14:51;1.60;;;0.70;;
11046;SDS011;5576;50.008;10.596;2023-04-24T03:17:18;0.85;;;0.70;;
11046;SDS011;5576;50.008;10.596;2023-04-24T03:19:43;0.97;;;0.60;;
11046;SDS011;5576;50.008;10.596;2023-04-24T03:22:10;0.93;;;0.60;;
11046;SDS011;5576;50.008;10.596;2023-04-24T03:24:37;1.08;;;0.70;;
11046;SDS011;5576;50.008;10.596;2023-04-24T03:27:03;1.50;;;0.60;;
11046;SDS011;5576;50.008;10.596;2023-04-24T03:29:49;1.33;;;0.70;;
11046;SDS011;5576;50.008;10.596;2023-04-24T03:32:19;1.00;;;0.70;;
11046;SDS011;5576;50.008;10.596;2023-04-24T03:34:46;1.02;;;0.60;;
11046;SDS011;5576;50.008;10.596;2023-04-24T03:37:14;0.63;;;0.60;;
11046;SDS011;5576;50.008;10.596;2023-04-24T03:39:45;1.70;;;0.70;;
11046;SDS011;5576;50.008;10.596;2023-04-24T03:42:13;1.20;;;0.70;;
11046;SDS011;5576;50.008;10.596;2023-04-24T03:44:48;1.40;;;0.73;;
11046;SDS011;5576;50.008;10.596;2023-04-24T03:47:14;2.17;;;0.63;;
11046;SDS011;5576;50.008;10.596;2023-04-24T03:49:41;1.33;;;0.70;;
11046;SDS011;5576;50.008;10.596;2023-04-24T03:52:08;1.03;;;0.80;;
11046;SDS011;5576;50.008;10.596;2023-04-24T03:54:34;1.00;;;0.65;;
11046;SDS011;5576;50.008;10.596;2023-04-24T03:57:00;1.35;;;0.80;;
11046;SDS011;5576;50.008;10.596;2023-04-24T03:59:28;1.75;;;0.68;;
11046;SDS011;5576;50.008;10.596;2023-04-24T04:02:07;1.75;;;0.75;;
11046;SDS011;5576;50.008;10.596;2023-04-24T04:04:33;1.67;;;0.80;;
11046;SDS011;5576;50.008;10.596;2023-04-24T04:06:59;1.15;;;0.70;;
11046;SDS011;5576;50.008;10.596;2023-04-24T04:44:16;1.20;;;0.70;;
11046;SDS011;5576;50.008;10.596;2023-04-24T04:46:42;1.50;;;0.80;;
11046;SDS011;5576;50.008;10.596;2023-04-24T04:49:27;1.20;;;0.80;;
11046;SDS011;5576;50.008;10.596;2023-04-24T04:51:54;1.27;;;0.70;;
11046;SDS011;5576;50.008;10.596;2023-04-24T04:54:22;0.88;;;0.60;;
11046;SDS011;5576;50.008;10.596;2023-04-24T04:56:49;1.40;;;0.75;;
11046;SDS011;5576;50.008;10.596;2023-04-24T04:59:15;1.33;;;0.70;;
11046;SDS011;5576;50.008;10.596;2023-04-24T05:01:41;1.33;;;0.73;;
11046;SDS011;5576;50.008;10.596;2023-04-24T05:04:09;2.50;;;0.80;;
11046;SDS011;5576;50.008;10.596;2023-04-24T05:06:36;1.77;;;0.80;;
11046;SDS011;5576;50.008;10.596;2023-04-24T05:09:03;1.00;;;0.82;;
11046;SDS011;5576;50.008;10.596;2023-04-24T05:11:37;2.40;;;1.00;;
11046;SDS011;5576;50.008;10.596;2023-04-24T05:14:02;2.03;;;0.75;;
11046;SDS011;5576;50.008;10.596;2023-04-24T05:16:38;1.70;;;0.70;;
11046;SDS011;5576;50.008;10.596;2023-04-24T05:19:05;1.55;;;0.70;;
11046;SDS011;5576;50.008;10.596;2023-04-24T05:21:35;1.30;;;0.70;;
11046;SDS011;5576;50.008;10.596;2023-04-24T05:24:01;1.38;;;0.80;;
11046;SDS011;5576;50.008;10.596;2023-04-24T05:26:42;1.35;;;0.70;;
11046;SDS011;5576;50.008;10.596;2023-04-24T05:29:09;1.35;;;0.70;;
11046;SDS011;5576;50.008;10.596;2023-04-24T05:31:35;1.13;;;0.63;;
11046;SDS011;5576;50.008;10.596;2023-04-24T05:34:00;1.75;;;0.60;;
11046;SDS011;5576;50.008;10.596;2023-04-24T05:36:26;1.53;;;0.90;;
11046;SDS011;5576;50.008;10.596;2023-04-24T05:38:54;2.67;;;0.82;;
11046;SDS011;5576;50.008;10.596;2023-04-24T05:41:20;1.30;;;0.73;;
11046;SDS011;5576;50.008;10.596;2023-04-24T05:43:47;2.22;;;0.70;;
11046;SDS011;5576;50.008;10.596;2023-04-24T05:46:13;2.10;;;0.90;;
11046;SDS011;5576;50.008;10.596;2023-04-24T05:48:38;1.30;;;0.80;;
11046;SDS011;5576;50.008;10.596;2023-04-24T05:51:04;1.45;;;0.75;;
11046;SDS011;5576;50.008;10.596;2023-04-24T05:53:30;1.63;;;0.82;;
11046;SDS011;5576;50.008;10.596;2023-04-24T05:55:56;1.37;;;0.70;;
11046;SDS011;5576;50.008;10.596;2023-04-24T05:58:22;1.15;;;0.80;;
11046;SDS011;5576;50.008;10.596;2023-04-24T06:00:48;2.15;;;1.00;;
11046;SDS011;5576;50.008;10.596;2023-04-24T06:03:16;1.23;;;0.80;;
11046;SDS011;5576;50.008;10.596;2023-04-24T06:05:41;1.50;;;0.90;;
11046;SDS011;5576;50.008;10.596;2023-04-24T06:08:07;2.17;;;1.10;;
11046;SDS011;5576;50.008;10.596;2023-04-24T06:10:37;1.40;;;0.80;;
11046;SDS011;5576;50.008;10.596;2023-04-24T06:13:05;1.33;;;0.90;;
11046;SDS011;5576;50.008;10.596;2023-04-24T06:15:33;1.20;;;0.90;;
11046;SDS011;5576;50.008;10.596;2023-04-24T06:18:04;1.25;;;0.80;;
11046;SDS011;5576;50.008;10.596;2023-04-24T06:20:30;1.00;;;0.88;;
11046;SDS011;5576;50.008;10.596;2023-04-24T06:22:56;1.93;;;0.80;;
11046;SDS011;5576;50.008;10.596;2023-04-24T06:25:24;1.00;;;0.90;;
11046;SDS011;5576;50.008;10.596;2023-04-24T06:27:51;1.35;;;0.90;;
11046;SDS011;5576;50.008;10.596;2023-04-24T06:30:16;1.10;;;0.90;;
11046;SDS011;5576;50.008;10.596;2023-04-24T06:32:43;1.10;;;0.93;;
11046;SDS011;5576;50.008;10.596;2023-04-24T06:35:09;1.60;;;0.95;;
11046;SDS011;5576;50.008;10.596;2023-04-24T06:37:37;1.85;;;0.90;;
11046;SDS011;5576;50.008;10.596;2023-04-24T06:40:04;1.35;;;1.00;;
11046;SDS011;5576;50.008;10.596;2023-04-24T06:42:30;1.52;;;1.10;;
11046;SDS011;5576;50.008;10.596;2023-04-24T06:44:56;2.17;;;0.98;;
11046;SDS011;5576;50.008;10.596;2023-04-24T06:47:22;1.30;;;0.90;;
11046;SDS011;5576;50.008;10.596;2023-04-24T06:49:48;1.23;;;1.00;;
11046;SDS011;5576;50.008;10.596;2023-04-24T06:52:16;1.25;;;1.00;;
11046;SDS011;5576;50.008;10.596;2023-04-24T06:54:41;1.98;;;1.00;;
11046;SDS011;5576;50.008;10.596;2023-04-24T06:57:08;2.20;;;1.10;;
11046;SDS011;5576;50.008;10.596;2023-04-24T06:59:34;1.95;;;0.90;;
11046;SDS011;5576;50.008;10.596;2023-04-24T07:01:59;2.00;;;1.20;;
11046;SDS011;5576;50.008;10.596;2023-04-24T07:04:25;1.40;;;1.02;;
11046;SDS011;5576;50.008;10.596;2023-04-24T07:06:51;1.67;;;1.20;;
11046;SDS011;5576;50.008;10.596;2023-04-24T07:09:19;0.95;;;0.90;;
11046;SDS011;5576;50.008;10.596;2023-04-24T07:11:45;1.48;;;1.10;;
11046;SDS011;5576;50.008;10.596;2023-04-24T07:14:11;1.30;;;1.07;;
11046;SDS011;5576;50.008;10.596;2023-04-24T07:16:37;1.85;;;1.15;;
11046;SDS011;5576;50.008;10.596;2023-04-24T07:19:03;1.55;;;1.17;;
11046;SDS011;5576;50.008;10.596;2023-04-24T07:21:29;1.30;;;1.20;;
11046;SDS011;5576;50.008;10.596;2023-04-24T07:23:57;1.33;;;1.17;;
11046;SDS011;5576;50.008;10.596;2023-04-24T07:26:23;1.63;;;1.20;;
11046;SDS011;5576;50.008;10.596;2023-04-24T07:28:49;2.10;;;1.20;;
11046;SDS011;5576;50.008;10.596;2023-04-24T07:31:15;1.30;;;1.20;;
11046;SDS011;5576;50.008;10.596;2023-04-24T07:33:40;1.40;;;1.20;;
11046;SDS011;5576;50.008;10.596;2023-04-24T07:36:06;1.50;;;1.27;;
11046;SDS011;5576;50.008;10.596;2023-04-24T07:38:32;1.30;;;1.20;;
11046;SDS011;5576;50.008;10.596;2023-04-24T07:40:58;2.20;;;1.40;;
11046;SDS011;5576;50.008;10.596;2023-04-24T07:43:23;1.20;;;1.10;;
11046;SDS011;5576;50.008;10.596;2023-04-24T07:45:49;1.80;;;1.33;;
11046;SDS011;5576;50.008;10.596;2023-04-24T07:48:16;1.33;;;1.23;;
11046;SDS011;5576;50.008;10.596;2023-04-24T07:50:43;1.60;;;1.27;;
11046;SDS011;5576;50.008;10.596;2023-04-24T07:53:09;1.80;;;1.20;;
11046;SDS011;5576;50.008;10.596;2023-04-24T07:55:35;1.38;;;1.20;;
11046;SDS011;5576;50.008;10.596;2023-04-24T07:58:01;1.37;;;1.27;;
11046;SDS011;5576;50.008;10.596;2023-04-24T08:00:27;1.90;;;1.38;;
11046;SDS011;5576;50.008;10.596;2023-04-24T08:02:52;1.40;;;1.30;;
11046;SDS011;5576;50.008;10.596;2023-04-24T08:05:18;2.17;;;1.50;;
11046;SDS011;5576;50.008;10.596;2023-04-24T08:07:45;1.83;;;1.50;;
11046;SDS011;5576;50.008;10.596;2023-04-24T08:10:13;1.58;;;1.48;;
11046;SDS011;5576;50.008;10.596;2023-04-24T08:12:41;1.50;;;1.40;;
11046;SDS011;5576;50.008;10.596;2023-04-24T08:15:07;2.08;;;1.52;;
11046;SDS011;5576;50.008;10.596;2023-04-24T08:17:33;1.98;;;1.52;;
11046;SDS011;5576;50.008;10.596;2023-04-24T08:20:00;1.85;;;1.50;;
11046;SDS011;5576;50.008;10.596;2023-04-24T08:22:27;2.10;;;1.50;;
11046;SDS011;5576;50.008;10.596;2023-04-24T08:24:53;2.08;;;1.48;;
11046;SDS011;5576;50.008;10.596;2023-04-24T08:27:19;1.50;;;1.40;;
11046;SDS011;5576;50.008;10.596;2023-04-24T08:29:45;1.92;;;1.50;;
11046;SDS011;5576;50.008;10.596;2023-04-24T08:32:10;1.63;;;1.40;;
11046;SDS011;5576;50.008;10.596;2023-04-24T08:34:36;1.88;;;1.50;;
11046;SDS011;5576;50.008;10.596;2023-04-24T08:37:02;1.70;;;1.60;;
11046;SDS011;5576;50.008;10.596;2023-04-24T08:39:28;1.80;;;1.50;;
11046;SDS011;5576;50.008;10.596;2023-04-24T08:41:54;1.90;;;1.67;;
11046;SDS011;5576;50.008;10.596;2023-04-24T08:44:20;1.60;;;1.50;;
11046;SDS011;5576;50.008;10.596;2023-04-24T08:46:47;1.93;;;1.60;;
11046;SDS011;5576;50.008;10.596;2023-04-24T08:49:14;2.03;;;1.60;;
11046;SDS011;5576;50.008;10.596;2023-04-24T08:51:41;1.77;;;1.52;;
11046;SDS011;5576;50.008;10.596;2023-04-24T08:54:08;3.13;;;1.50;;
11046;SDS011;5576;50.008;10.596;2023-04-24T08:56:34;2.25;;;1.60;;
11046;SDS011;5576;50.008;10.596;2023-04-24T08:59:03;1.80;;;1.70;;
11046;SDS011;5576;50.008;10.596;2023-04-24T09:01:29;2.08;;;1.40;;
11046;SDS011;5576;50.008;10.596;2023-04-24T09:03:58;1.77;;;1.42;;
11046;SDS011;5576;50.008;10.596;2023-04-24T09:06:28;1.50;;;1.40;;
11046;SDS011;5576;50.008;10.596;2023-04-24T09:08:55;1.80;;;1.42;;
11046;SDS011;5576;50.008;10.596;2023-04-24T09:11:25;1.50;;;1.40;;
11046;SDS011;5576;50.008;10.596;2023-04-24T09:13:53;1.42;;;1.33;;
11046;SDS011;5576;50.008;10.596;2023-04-24T09:16:19;1.75;;;1.50;;
11046;SDS011;5576;50.008;10.596;2023-04-24T09:18:45;1.77;;;1.52;;
11046;SDS011;5576;50.008;10.596;2023-04-24T09:21:11;1.88;;;1.50;;
11046;SDS011;5576;50.008;10.596;2023-04-24T09:23:37;1.83;;;1.63;;
11046;SDS011;5576;50.008;10.596;2023-04-24T09:26:04;2.17;;;1.70;;
11046;SDS011;5576;50.008;10.596;2023-04-24T09:28:31;1.92;;;1.70;;
11046;SDS011;5576;50.008;10.596;2023-04-24T09:31:04;2.30;;;1.70;;
11046;SDS011;5576;50.008;10.596;2023-04-24T09:33:31;2.00;;;1.75;;
11046;SDS011;5576;50.008;10.596;2023-04-24T09:35:57;1.90;;;1.60;;
11046;SDS011;5576;50.008;10.596;2023-04-24T09:41:00;1.60;;;1.42;;
11046;SDS011;5576;50.008;10.596;2023-04-24T09:43:28;2.13;;;1.30;;
11046;SDS011;5576;50.008;10.596;2023-04-24T09:45:56;1.27;;;1.17;;
11046;SDS011;5576;50.008;10.596;2023-04-24T09:48:31;1.20;;;1.10;;
11046;SDS011;5576;50.008;10.596;2023-04-24T09:50:58;1.43;;;1.30;;
11046;SDS011;5576;50.008;10.596;2023-04-24T09:53:26;1.92;;;1.67;;
11046;SDS011;5576;50.008;10.596;2023-04-24T09:55:52;1.77;;;1.38;;
11046;SDS011;5576;50.008;10.596;2023-04-24T09:58:24;2.78;;;1.85;;
11046;SDS011;5576;50.008;10.596;2023-04-24T10:00:54;1.20;;;1.10;;
11046;SDS011;5576;50.008;10.596;2023-04-24T10:03:23;1.75;;;1.50;;
11046;SDS011;5576;50.008;10.596;2023-04-24T10:05:52;1.60;;;1.40;;
11046;SDS011;5576;50.008;10.596;2023-04-24T10:08:18;8.55;;;6.38;;
11046;SDS011;5576;50.008;10.596;2023-04-24T10:10:45;3.30;;;2.45;;
11046;SDS011;5576;50.008;10.596;2023-04-24T10:13:12;2.42;;;2.03;;
11046;SDS011;5576;50.008;10.596;2023-04-24T10:15:40;3.17;;;2.30;;
11046;SDS011;5576;50.008;10.596;2023-04-24T10:18:07;3.25;;;2.50;;
11046;SDS011;5576;50.008;10.596;2023-04-24T10:20:34;3.03;;;2.10;;
11046;SDS011;5576;50.008;10.596;2023-04-24T10:23:02;1.80;;;1.60;;
11046;SDS011;5576;50.008;10.596;2023-04-24T10:25:29;1.70;;;1.58;;
11046;SDS011;5576;50.008;10.596;2023-04-24T10:27:57;1.40;;;1.23;;
11046;SDS011;5576;50.008;10.596;2023-04-24T10:30:27;2.10;;;1.58;;
11046;SDS011;5576;50.008;10.596;2023-04-24T10:32:54;2.30;;;2.05;;
11046;SDS011;5576;50.008;10.596;2023-04-24T10:35:23;1.95;;;1.80;;
11046;SDS011;5576;50.008;10.596;2023-04-24T10:38:11;2.77;;;1.73;;
11046;SDS011;5576;50.008;10.596;2023-04-24T10:40:38;2.45;;;1.90;;
11046;SDS011;5576;50.008;10.596;2023-04-24T10:43:05;1.80;;;1.70;;
11046;SDS011;5576;50.008;10.596;2023-04-24T10:45:33;1.73;;;1.33;;
11046;SDS011;5576;50.008;10.596;2023-04-24T10:48:01;1.50;;;1.40;;
11046;SDS011;5576;50.008;10.596;2023-04-24T10:50:29;1.73;;;1.55;;
11046;SDS011;5576;50.008;10.596;2023-04-24T10:53:07;1.77;;;1.30;;
11046;SDS011;5576;50.008;10.596;2023-04-24T10:55:43;1.52;;;1.23;;
11046;SDS011;5576;50.008;10.596;2023-04-24T10:58:10;2.00;;;1.40;;
11046;SDS011;5576;50.008;10.596;2023-04-24T11:00:37;1.50;;;1.20;;
11046;SDS011;5576;50.008;10.596;2023-04-24T11:03:04;1.30;;;1.20;;
11046;SDS011;5576;50.008;10.596;2023-04-24T11:10:54;4.25;;;2.15;;
11046;SDS011;5576;50.008;10.596;2023-04-24T11:13:23;1.40;;;1.23;;
11046;SDS011;5576;50.008;10.596;2023-04-24T11:18:42;1.60;;;1.30;;
11046;SDS011;5576;50.008;10.596;2023-04-24T11:21:17;2.13;;;1.93;;
11046;SDS011;5576;50.008;10.596;2023-04-24T11:23:43;1.90;;;1.55;;
11046;SDS011;5576;50.008;10.596;2023-04-24T11:26:12;1.52;;;1.38;;
11046;SDS011;5576;50.008;10.596;2023-04-24T11:28:45;1.60;;;1.50;;
11046;SDS011;5576;50.008;10.596;2023-04-24T11:34:05;1.50;;;1.40;;
11046;SDS011;5576;50.008;10.596;2023-04-24T11:36:32;1.30;;;1.20;;
11046;SDS011;5576;50.008;10.596;2023-04-24T11:38:59;1.50;;;1.40;;
11046;SDS011;5576;50.008;10.596;2023-04-24T11:41:26;1.80;;;1.70;;
11046;SDS011;5576;50.008;10.596;2023-04-24T11:43:53;1.40;;;1.30;;
11046;SDS011;5576;50.008;10.596;2023-04-24T11:46:20;2.50;;;1.40;;
11046;SDS011;5576;50.008;10.596;2023-04-24T11:48:46;1.55;;;1.45;;
11046;SDS011;5576;50.008;10.596;2023-04-24T11:51:13;1.70;;;1.60;;
11046;SDS011;5576;50.008;10.596;2023-04-24T11:53:39;2.40;;;1.90;;
11046;SDS011;5576;50.008;10.596;2023-04-24T11:56:05;4.03;;;1.70;;
11046;SDS011;5576;50.008;10.596;2023-04-24T11:58:34;1.45;;;1.35;;
11046;SDS011;5576;50.008;10.596;2023-04-24T12:01:03;1.88;;;1.70;;
11046;SDS011;5576;50.008;10.596;2023-04-24T12:03:30;1.80;;;1.50;;
11046;SDS011;5576;50.008;10.596;2023-04-24T12:06:12;1.80;;;1.70;;
11046;SDS011;5576;50.008;10.596;2023-04-24T12:08:38;1.40;;;1.30;;
11046;SDS011;5576;50.008;10.596;2023-04-24T12:11:05;1.33;;;1.23;;
11046;SDS011;5576;50.008;10.596;2023-04-24T12:13:33;2.35;;;1.20;;
11046;SDS011;5576;50.008;10.596;2023-04-24T12:16:01;1.50;;;1.30;;
11046;SDS011;5576;50.008;10.596;2023-04-24T12:18:28;1.90;;;1.80;;
11046;SDS011;5576;50.008;10.596;2023-04-24T12:20:54;2.85;;;2.20;;
11046;SDS011;5576;50.008;10.596;2023-04-24T12:23:35;1.80;;;1.70;;
11046;SDS011;5576;50.008;10.596;2023-04-24T12:26:04;1.50;;;1.40;;
11046;SDS011;5576;50.008;10.596;2023-04-24T12:28:34;1.23;;;1.13;;
11046;SDS011;5576;50.008;10.596;2023-04-24T12:31:01;1.20;;;1.10;;
11046;SDS011;5576;50.008;10.596;2023-04-24T12:33:27;2.05;;;1.85;;
11046;SDS011;5576;50.008;10.596;2023-04-24T12:35:57;1.83;;;1.70;;
11046;SDS011;5576;50.008;10.596;2023-04-24T12:38:24;1.50;;;1.40;;
11046;SDS011;5576;50.008;10.596;2023-04-24T12:41:07;3.17;;;2.25;;
11046;SDS011;5576;50.008;10.596;2023-04-24T12:43:35;3.00;;;2.30;;
11046;SDS011;5576;50.008;10.596;2023-04-24T12:46:01;2.45;;;1.95;;
11046;SDS011;5576;50.008;10.596;2023-04-24T12:48:28;2.42;;;2.10;;
11046;SDS011;5576;50.008;10.596;2023-04-24T12:50:54;2.58;;;2.35;;
11046;SDS011;5576;50.008;10.596;2023-04-24T12:53:21;3.30;;;2.77;;
11046;SDS011;5576;50.008;10.596;2023-04-24T12:55:47;2.50;;;2.10;;
11046;SDS011;5576;50.008;10.596;2023-04-24T12:58:18;2.08;;;1.65;;
11046;SDS011;5576;50.008;10.596;2023-04-24T13:00:45;2.13;;;1.42;;
11046;SDS011;5576;50.008;10.596;2023-04-24T13:03:12;1.80;;;1.37;;
11046;SDS011;5576;50.008;10.596;2023-04-24T13:05:38;1.35;;;1.25;;
11046;SDS011;5576;50.008;10.596;2023-04-24T13:08:03;1.95;;;1.70;;
11046;SDS011;5576;50.008;10.596;2023-04-24T13:10:29;1.85;;;1.27;;
11046;SDS011;5576;50.008;10.596;2023-04-24T13:12:55;1.38;;;1.25;;
11046;SDS011;5576;50.008;10.596;2023-04-24T13:15:21;1.20;;;1.05;;
11046;SDS011;5576;50.008;10.596;2023-04-24T13:17:47;1.30;;;1.20;;
11046;SDS011;5576;50.008;10.596;2023-04-24T13:20:13;1.10;;;1.00;;
11046;SDS011;5576;50.008;10.596;2023-04-24T13:22:38;1.93;;;1.20;;
11046;SDS011;5576;50.008;10.596;2023-04-24T13:25:04;1.55;;;1.10;;
11046;SDS011;5576;50.008;10.596;2023-04-24T13:27:31;2.50;;;1.93;;
11046;SDS011;5576;50.008;10.596;2023-04-24T13:29:57;1.50;;;1.40;;
11046;SDS011;5576;50.008;10.596;2023-04-24T13:32:22;1.20;;;1.00;;
11046;SDS011;5576;50.008;10.596;2023-04-24T13:34:48;1.10;;;1.00;;
11046;SDS011;5576;50.008;10.596;2023-04-24T13:37:14;1.40;;;1.30;;
11046;SDS011;5576;50.008;10.596;2023-04-24T13:39:40;1.77;;;1.20;;
11046;SDS011;5576;50.008;10.596;2023-04-24T13:42:06;1.30;;;1.20;;
11046;SDS011;5576;50.008;10.596;2023-04-24T13:44:32;1.40;;;1.10;;
11046;SDS011;5576;50.008;10.596;2023-04-24T13:46:58;1.58;;;1.33;;
11046;SDS011;5576;50.008;10.596;2023-04-24T13:49:24;1.30;;;1.20;;
11046;SDS011;5576;50.008;10.596;2023-04-24T13:51:51;2.33;;;1.23;;
11046;SDS011;5576;50.008;10.596;2023-04-24T13:54:18;1.25;;;1.13;;
11046;SDS011;5576;50.008;10.596;2023-04-24T13:56:44;1.83;;;1.20;;
11046;SDS011;5576;50.008;10.596;2023-04-24T13:59:11;1.50;;;1.10;;
11046;SDS011;5576;50.008;10.596;2023-04-24T14:01:38;2.17;;;1.30;;
11046;SDS011;5576;50.008;10.596;2023-04-24T14:04:04;1.50;;;1.30;;
11046;SDS011;5576;50.008;10.596;2023-04-24T14:06:29;1.48;;;1.33;;
11046;SDS011;5576;50.008;10.596;2023-04-24T14:08:56;1.35;;;1.20;;
11046;SDS011;5576;50.008;10.596;2023-04-24T14:11:22;3.67;;;1.50;;
11046;SDS011;5576;50.008;10.596;2023-04-24T14:13:47;1.52;;;1.42;;
11046;SDS011;5576;50.008;10.596;2023-04-24T14:16:14;1.50;;;1.40;;
11046;SDS011;5576;50.008;10.596;2023-04-24T14:18:39;1.30;;;1.10;;
11046;SDS011;5576;50.008;10.596;2023-04-24T14:21:05;2.53;;;2.10;;
11046;SDS011;5576;50.008;10.596;2023-04-24T14:23:31;4.13;;;3.00;;
11046;SDS011;5576;50.008;10.596;2023-04-24T14:25:57;1.63;;;1.52;;
11046;SDS011;5576;50.008;10.596;2023-04-24T14:28:24;1.85;;;1.60;;
11046;SDS011;5576;50.008;10.596;2023-04-24T14:30:51;1.70;;;1.60;;
11046;SDS011;5576;50.008;10.596;2023-04-24T14:33:17;1.67;;;1.58;;
11046;SDS011;5576;50.008;10.596;2023-04-24T14:35:43;1.70;;;1.60;;
11046;SDS011;5576;50.008;10.596;2023-04-24T14:38:10;2.22;;;2.00;;
11046;SDS011;5576;50.008;10.596;2023-04-24T14:40:36;2.03;;;1.70;;
11046;SDS011;5576;50.008;10.596;2023-04-24T14:43:02;2.13;;;1.77;;
11046;SDS011;5576;50.008;10.596;2023-04-24T14:45:28;1.95;;;1.75;;
11046;SDS011;5576;50.008;10.596;2023-04-24T14:47:54;2.10;;;1.90;;
11046;SDS011;5576;50.008;10.596;2023-04-24T14:50:21;2.30;;;2.07;;
11046;SDS011;5576;50.008;10.596;2023-04-24T14:52:46;2.22;;;1.85;;
11046;SDS011;5576;50.008;10.596;2023-04-24T14:55:12;1.70;;;1.60;;
11046;SDS011;5576;50.008;10.596;2023-04-24T14:57:38;2.03;;;1.77;;
11046;SDS011;5576;50.008;10.596;2023-04-24T15:00:05;2.30;;;1.70;;
11046;SDS011;5576;50.008;10.596;2023-04-24T15:02:33;1.75;;;1.55;;
11046;SDS011;5576;50.008;10.596;2023-04-24T15:05:02;2.78;;;2.08;;
11046;SDS011;5576;50.008;10.596;2023-04-24T15:07:29;2.22;;;1.90;;
11046;SDS011;5576;50.008;10.596;2023-04-24T15:09:56;2.77;;;1.90;;
11046;SDS011;5576;50.008;10.596;2023-04-24T15:12:21;1.58;;;1.40;;
11046;SDS011;5576;50.008;10.596;2023-04-24T15:14:47;2.00;;;1.70;;
11046;SDS011;5576;50.008;10.596;2023-04-24T15:17:13;1.73;;;1.63;;
11046;SDS011;5576;50.008;10.596;2023-04-24T15:19:39;1.70;;;1.30;;
11046;SDS011;5576;50.008;10.596;2023-04-24T15:22:04;2.25;;;1.92;;
11046;SDS011;5576;50.008;10.596;2023-04-24T15:24:30;3.00;;;1.60;;
11046;SDS011;5576;50.008;10.596;2023-04-24T15:26:56;2.10;;;1.67;;
11046;SDS011;5576;50.008;10.596;2023-04-24T15:29:22;1.83;;;1.50;;
11046;SDS011;5576;50.008;10.596;2023-04-24T15:31:48;1.63;;;1.52;;
11046;SDS011;5576;50.008;10.596;2023-04-24T15:34:13;2.33;;;1.50;;
11046;SDS011;5576;50.008;10.596;2023-04-24T15:36:39;2.05;;;1.60;;